sensor_id;sensor_type;location;lat;lon;timestamp;temperature;humidity
1778;DHT22;886;50.082;8.222;2023-06-26T00:02:22;22.90;88.40
1778;DHT22;886;50.082;8.222;2023-06-26T00:04:49;22.80;88.30
1778;DHT22;886;50.082;8.222;2023-06-26T00:07:20;22.90;88.60
1778;DHT22;886;50.082;8.222;2023-06-26T00:09:47;22.90;88.50
1778;DHT22;886;50.082;8.222;2023-06-26T00:12:14;22.90;88.80
1778;DHT22;886;50.082;8.222;2023-06-26T00:14:41;22.70;89.20
1778;DHT22;886;50.082;8.222;2023-06-26T00:17:08;22.60;89.20
1778;DHT22;886;50.082;8.222;2023-06-26T00:19:36;22.60;89.00
1778;DHT22;886;50.082;8.222;2023-06-26T00:22:04;22.50;89.70
1778;DHT22;886;50.082;8.222;2023-06-26T00:24:31;22.50;90.20
1778;DHT22;886;50.082;8.222;2023-06-26T00:26:58;22.50;90.10
1778;DHT22;886;50.082;8.222;2023-06-26T00:29:25;22.60;90.00
1778;DHT22;886;50.082;8.222;2023-06-26T00:31:52;22.60;90.00
1778;DHT22;886;50.082;8.222;2023-06-26T00:34:19;22.60;90.00
1778;DHT22;886;50.082;8.222;2023-06-26T00:36:48;22.70;89.80
1778;DHT22;886;50.082;8.222;2023-06-26T00:39:15;22.70;89.70
1778;DHT22;886;50.082;8.222;2023-06-26T00:41:42;22.60;89.70
1778;DHT22;886;50.082;8.222;2023-06-26T00:44:09;22.60;89.90
1778;DHT22;886;50.082;8.222;2023-06-26T00:46:36;22.50;90.10
1778;DHT22;886;50.082;8.222;2023-06-26T00:49:04;22.40;90.30
1778;DHT22;886;50.082;8.222;2023-06-26T00:51:31;22.30;90.40
1778;DHT22;886;50.082;8.222;2023-06-26T00:54:00;22.30;90.50
1778;DHT22;886;50.082;8.222;2023-06-26T00:56:27;22.30;90.60
1778;DHT22;886;50.082;8.222;2023-06-26T00:58:55;22.20;90.70
1778;DHT22;886;50.082;8.222;2023-06-26T01:01:22;22.20;90.70
1778;DHT22;886;50.082;8.222;2023-06-26T01:03:53;22.20;90.70
1778;DHT22;886;50.082;8.222;2023-06-26T01:06:22;22.20;90.70
1778;DHT22;886;50.082;8.222;2023-06-26T01:08:51;22.10;90.70
1778;DHT22;886;50.082;8.222;2023-06-26T01:11:20;22.10;90.90
1778;DHT22;886;50.082;8.222;2023-06-26T01:13:47;22.00;91.00
1778;DHT22;886;50.082;8.222;2023-06-26T01:16:15;22.00;91.20
1778;DHT22;886;50.082;8.222;2023-06-26T01:18:46;22.10;91.10
1778;DHT22;886;50.082;8.222;2023-06-26T01:21:15;22.20;90.90
1778;DHT22;886;50.082;8.222;2023-06-26T01:23:56;22.10;90.90
1778;DHT22;886;50.082;8.222;2023-06-26T01:26:29;22.10;90.80
1778;DHT22;886;50.082;8.222;2023-06-26T01:28:58;22.00;91.30
1778;DHT22;886;50.082;8.222;2023-06-26T01:31:27;21.90;91.20
1778;DHT22;886;50.082;8.222;2023-06-26T01:33:57;21.70;91.50
1778;DHT22;886;50.082;8.222;2023-06-26T01:36:25;21.70;91.80
1778;DHT22;886;50.082;8.222;2023-06-26T01:38:53;21.70;91.70
1778;DHT22;886;50.082;8.222;2023-06-26T01:41:21;21.70;91.70
1778;DHT22;886;50.082;8.222;2023-06-26T01:44:01;21.80;91.70
1778;DHT22;886;50.082;8.222;2023-06-26T01:46:39;21.70;91.80
1778;DHT22;886;50.082;8.222;2023-06-26T01:49:31;21.70;91.60
1778;DHT22;886;50.082;8.222;2023-06-26T01:52:09;21.70;91.70
1778;DHT22;886;50.082;8.222;2023-06-26T01:54:47;21.70;91.70
1778;DHT22;886;50.082;8.222;2023-06-26T01:57:23;21.70;91.80
1778;DHT22;886;50.082;8.222;2023-06-26T01:59:55;21.70;91.90
1778;DHT22;886;50.082;8.222;2023-06-26T02:02:23;21.70;91.80
1778;DHT22;886;50.082;8.222;2023-06-26T02:04:52;21.70;91.50
1778;DHT22;886;50.082;8.222;2023-06-26T02:07:19;21.60;91.60
1778;DHT22;886;50.082;8.222;2023-06-26T02:09:46;21.50;92.00
1778;DHT22;886;50.082;8.222;2023-06-26T02:12:13;21.50;92.10
1778;DHT22;886;50.082;8.222;2023-06-26T02:14:40;21.40;92.20
1778;DHT22;886;50.082;8.222;2023-06-26T02:17:09;21.30;92.30
1778;DHT22;886;50.082;8.222;2023-06-26T02:19:36;21.40;92.20
1778;DHT22;886;50.082;8.222;2023-06-26T02:22:03;21.40;92.30
1778;DHT22;886;50.082;8.222;2023-06-26T02:24:30;21.40;92.00
1778;DHT22;886;50.082;8.222;2023-06-26T02:26:57;21.30;92.20
1778;DHT22;886;50.082;8.222;2023-06-26T02:29:24;21.20;92.60
1778;DHT22;886;50.082;8.222;2023-06-26T02:31:51;21.20;92.60
1778;DHT22;886;50.082;8.222;2023-06-26T02:34:20;21.20;92.60
1778;DHT22;886;50.082;8.222;2023-06-26T02:36:47;21.10;92.70
1778;DHT22;886;50.082;8.222;2023-06-26T02:39:14;21.10;92.80
1778;DHT22;886;50.082;8.222;2023-06-26T02:41:41;21.20;92.70
1778;DHT22;886;50.082;8.222;2023-06-26T02:44:10;21.30;92.50
1778;DHT22;886;50.082;8.222;2023-06-26T02:46:38;21.20;92.60
1778;DHT22;886;50.082;8.222;2023-06-26T02:49:06;21.30;92.60
1778;DHT22;886;50.082;8.222;2023-06-26T02:51:34;21.10;92.80
1778;DHT22;886;50.082;8.222;2023-06-26T02:54:01;21.10;92.80
1778;DHT22;886;50.082;8.222;2023-06-26T02:56:29;21.10;92.70
1778;DHT22;886;50.082;8.222;2023-06-26T02:58:56;21.10;92.70
1778;DHT22;886;50.082;8.222;2023-06-26T03:01:23;21.10;92.60
1778;DHT22;886;50.082;8.222;2023-06-26T03:03:51;21.10;92.80
1778;DHT22;886;50.082;8.222;2023-06-26T03:06:18;21.00;92.90
1778;DHT22;886;50.082;8.222;2023-06-26T03:08:46;21.00;92.90
1778;DHT22;886;50.082;8.222;2023-06-26T03:11:13;20.90;93.00
1778;DHT22;886;50.082;8.222;2023-06-26T03:13:41;21.00;93.10
1778;DHT22;886;50.082;8.222;2023-06-26T03:16:07;21.00;93.10
1778;DHT22;886;50.082;8.222;2023-06-26T03:18:35;21.00;93.00
1778;DHT22;886;50.082;8.222;2023-06-26T03:21:02;20.80;93.30
1778;DHT22;886;50.082;8.222;2023-06-26T03:23:29;20.90;93.20
1778;DHT22;886;50.082;8.222;2023-06-26T03:25:58;20.80;93.30
1778;DHT22;886;50.082;8.222;2023-06-26T03:28:25;20.60;93.60
1778;DHT22;886;50.082;8.222;2023-06-26T03:30:52;20.60;93.60
1778;DHT22;886;50.082;8.222;2023-06-26T03:33:19;20.50;94.00
1778;DHT22;886;50.082;8.222;2023-06-26T03:35:46;20.50;94.20
1778;DHT22;886;50.082;8.222;2023-06-26T03:38:13;20.50;94.00
1778;DHT22;886;50.082;8.222;2023-06-26T03:40:40;20.60;93.90
1778;DHT22;886;50.082;8.222;2023-06-26T03:43:09;20.60;93.90
1778;DHT22;886;50.082;8.222;2023-06-26T03:45:36;20.40;94.20
1778;DHT22;886;50.082;8.222;2023-06-26T03:48:03;20.40;94.30
1778;DHT22;886;50.082;8.222;2023-06-26T03:50:31;20.40;94.50
1778;DHT22;886;50.082;8.222;2023-06-26T03:52:58;20.50;94.30
1778;DHT22;886;50.082;8.222;2023-06-26T03:55:26;20.50;94.30
1778;DHT22;886;50.082;8.222;2023-06-26T03:57:53;20.60;94.20
1778;DHT22;886;50.082;8.222;2023-06-26T04:00:21;20.60;94.10
1778;DHT22;886;50.082;8.222;2023-06-26T04:02:48;20.50;94.30
1778;DHT22;886;50.082;8.222;2023-06-26T04:05:15;20.50;94.20
1778;DHT22;886;50.082;8.222;2023-06-26T04:07:43;20.40;94.30
1778;DHT22;886;50.082;8.222;2023-06-26T04:10:10;20.50;94.40
1778;DHT22;886;50.082;8.222;2023-06-26T04:12:37;20.60;94.40
1778;DHT22;886;50.082;8.222;2023-06-26T04:15:05;20.60;94.20
1778;DHT22;886;50.082;8.222;2023-06-26T04:17:34;20.60;94.30
1778;DHT22;886;50.082;8.222;2023-06-26T04:20:01;20.70;94.10
1778;DHT22;886;50.082;8.222;2023-06-26T04:22:32;20.70;94.10
1778;DHT22;886;50.082;8.222;2023-06-26T04:25:01;20.70;94.10
1778;DHT22;886;50.082;8.222;2023-06-26T04:27:29;20.70;94.20
1778;DHT22;886;50.082;8.222;2023-06-26T04:30:02;20.70;94.30
1778;DHT22;886;50.082;8.222;2023-06-26T04:32:30;20.60;94.50
1778;DHT22;886;50.082;8.222;2023-06-26T04:34:58;20.70;94.60
1778;DHT22;886;50.082;8.222;2023-06-26T04:37:26;20.60;94.70
1778;DHT22;886;50.082;8.222;2023-06-26T04:39:53;20.70;94.80
1778;DHT22;886;50.082;8.222;2023-06-26T04:42:20;20.80;94.80
1778;DHT22;886;50.082;8.222;2023-06-26T04:44:48;20.80;94.80
1778;DHT22;886;50.082;8.222;2023-06-26T04:47:15;20.70;95.00
1778;DHT22;886;50.082;8.222;2023-06-26T04:49:43;20.70;95.10
1778;DHT22;886;50.082;8.222;2023-06-26T04:52:13;20.70;95.10
1778;DHT22;886;50.082;8.222;2023-06-26T04:54:41;20.70;95.30
1778;DHT22;886;50.082;8.222;2023-06-26T04:57:08;20.80;95.50
1778;DHT22;886;50.082;8.222;2023-06-26T04:59:38;20.80;95.50
1778;DHT22;886;50.082;8.222;2023-06-26T05:02:06;20.80;95.50
1778;DHT22;886;50.082;8.222;2023-06-26T05:04:33;20.80;95.30
1778;DHT22;886;50.082;8.222;2023-06-26T05:07:00;20.80;95.60
1778;DHT22;886;50.082;8.222;2023-06-26T05:09:28;20.80;95.70
1778;DHT22;886;50.082;8.222;2023-06-26T05:11:55;20.90;95.60
1778;DHT22;886;50.082;8.222;2023-06-26T05:14:22;21.00;95.10
1778;DHT22;886;50.082;8.222;2023-06-26T05:16:51;21.00;94.90
1778;DHT22;886;50.082;8.222;2023-06-26T05:19:18;21.10;95.10
1778;DHT22;886;50.082;8.222;2023-06-26T05:21:46;21.20;95.20
1778;DHT22;886;50.082;8.222;2023-06-26T05:24:16;21.20;95.30
1778;DHT22;886;50.082;8.222;2023-06-26T05:26:45;21.20;95.10
1778;DHT22;886;50.082;8.222;2023-06-26T05:29:13;21.20;95.10
1778;DHT22;886;50.082;8.222;2023-06-26T05:31:41;21.20;95.20
1778;DHT22;886;50.082;8.222;2023-06-26T05:34:10;21.30;95.30
1778;DHT22;886;50.082;8.222;2023-06-26T05:36:39;21.40;95.30
1778;DHT22;886;50.082;8.222;2023-06-26T05:39:09;21.40;95.20
1778;DHT22;886;50.082;8.222;2023-06-26T05:41:36;21.40;95.20
1778;DHT22;886;50.082;8.222;2023-06-26T05:44:05;21.60;94.80
1778;DHT22;886;50.082;8.222;2023-06-26T05:46:32;21.60;94.80
1778;DHT22;886;50.082;8.222;2023-06-26T05:48:59;21.70;94.60
1778;DHT22;886;50.082;8.222;2023-06-26T05:51:28;21.90;93.90
1778;DHT22;886;50.082;8.222;2023-06-26T05:53:56;21.90;93.50
1778;DHT22;886;50.082;8.222;2023-06-26T05:56:24;22.00;93.60
1778;DHT22;886;50.082;8.222;2023-06-26T05:58:52;22.10;93.50
1778;DHT22;886;50.082;8.222;2023-06-26T06:01:38;22.10;93.70
1778;DHT22;886;50.082;8.222;2023-06-26T06:04:05;22.30;93.10
1778;DHT22;886;50.082;8.222;2023-06-26T06:06:33;22.30;92.90
1778;DHT22;886;50.082;8.222;2023-06-26T06:09:00;22.40;93.00
1778;DHT22;886;50.082;8.222;2023-06-26T06:11:27;22.50;93.40
1778;DHT22;886;50.082;8.222;2023-06-26T06:13:54;22.60;93.40
1778;DHT22;886;50.082;8.222;2023-06-26T06:16:21;22.90;92.60
1778;DHT22;886;50.082;8.222;2023-06-26T06:18:49;23.50;91.90
1778;DHT22;886;50.082;8.222;2023-06-26T06:21:16;24.10;91.20
1778;DHT22;886;50.082;8.222;2023-06-26T06:23:43;24.50;90.40
1778;DHT22;886;50.082;8.222;2023-06-26T06:26:11;24.90;90.10
1778;DHT22;886;50.082;8.222;2023-06-26T06:28:38;25.00;90.30
1778;DHT22;886;50.082;8.222;2023-06-26T06:31:05;25.00;89.90
1778;DHT22;886;50.082;8.222;2023-06-26T06:33:32;25.00;89.10
1778;DHT22;886;50.082;8.222;2023-06-26T06:36:02;25.10;88.20
1778;DHT22;886;50.082;8.222;2023-06-26T06:38:30;25.10;87.60
1778;DHT22;886;50.082;8.222;2023-06-26T06:40:58;25.10;87.60
1778;DHT22;886;50.082;8.222;2023-06-26T06:43:25;25.10;87.30
1778;DHT22;886;50.082;8.222;2023-06-26T06:45:52;25.10;87.30
1778;DHT22;886;50.082;8.222;2023-06-26T06:48:19;25.00;87.50
1778;DHT22;886;50.082;8.222;2023-06-26T06:50:46;24.90;87.90
1778;DHT22;886;50.082;8.222;2023-06-26T06:53:15;25.00;88.70
1778;DHT22;886;50.082;8.222;2023-06-26T06:55:42;25.00;86.70
1778;DHT22;886;50.082;8.222;2023-06-26T06:58:09;25.10;85.50
1778;DHT22;886;50.082;8.222;2023-06-26T07:00:36;25.10;84.60
1778;DHT22;886;50.082;8.222;2023-06-26T07:03:04;25.10;84.70
1778;DHT22;886;50.082;8.222;2023-06-26T07:05:31;25.30;85.60
1778;DHT22;886;50.082;8.222;2023-06-26T07:07:58;25.50;85.10
1778;DHT22;886;50.082;8.222;2023-06-26T07:10:29;25.90;83.30
1778;DHT22;886;50.082;8.222;2023-06-26T07:12:57;26.10;83.30
1778;DHT22;886;50.082;8.222;2023-06-26T07:15:24;26.40;83.10
1778;DHT22;886;50.082;8.222;2023-06-26T07:17:53;26.80;83.10
1778;DHT22;886;50.082;8.222;2023-06-26T07:20:20;27.00;83.00
1778;DHT22;886;50.082;8.222;2023-06-26T07:22:48;27.10;82.30
1778;DHT22;886;50.082;8.222;2023-06-26T07:25:15;27.10;82.70
1778;DHT22;886;50.082;8.222;2023-06-26T07:27:44;26.90;82.70
1778;DHT22;886;50.082;8.222;2023-06-26T07:30:12;27.10;81.00
1778;DHT22;886;50.082;8.222;2023-06-26T07:32:39;27.20;80.70
1778;DHT22;886;50.082;8.222;2023-06-26T07:35:09;27.30;79.30
1778;DHT22;886;50.082;8.222;2023-06-26T07:37:36;27.20;78.90
1778;DHT22;886;50.082;8.222;2023-06-26T07:40:04;27.10;79.60
1778;DHT22;886;50.082;8.222;2023-06-26T07:42:32;27.10;79.10
1778;DHT22;886;50.082;8.222;2023-06-26T07:45:00;27.00;79.00
1778;DHT22;886;50.082;8.222;2023-06-26T07:47:27;27.00;79.30
1778;DHT22;886;50.082;8.222;2023-06-26T07:49:56;27.00;78.60
1778;DHT22;886;50.082;8.222;2023-06-26T07:52:23;27.00;79.10
1778;DHT22;886;50.082;8.222;2023-06-26T07:54:50;26.80;78.50
1778;DHT22;886;50.082;8.222;2023-06-26T07:57:17;26.70;78.80
1778;DHT22;886;50.082;8.222;2023-06-26T07:59:44;26.60;79.40
1778;DHT22;886;50.082;8.222;2023-06-26T08:02:13;26.50;79.40
1778;DHT22;886;50.082;8.222;2023-06-26T08:04:40;26.40;79.70
1778;DHT22;886;50.082;8.222;2023-06-26T08:07:07;26.30;80.40
1778;DHT22;886;50.082;8.222;2023-06-26T08:09:34;26.20;80.90
1778;DHT22;886;50.082;8.222;2023-06-26T08:12:01;26.20;81.00
1778;DHT22;886;50.082;8.222;2023-06-26T08:14:29;26.20;81.10
1778;DHT22;886;50.082;8.222;2023-06-26T08:16:56;26.30;81.10
1778;DHT22;886;50.082;8.222;2023-06-26T08:19:24;26.40;81.10
1778;DHT22;886;50.082;8.222;2023-06-26T08:21:51;26.50;81.50
1778;DHT22;886;50.082;8.222;2023-06-26T08:24:18;26.60;81.80
1778;DHT22;886;50.082;8.222;2023-06-26T08:26:46;26.70;82.10
1778;DHT22;886;50.082;8.222;2023-06-26T08:29:14;26.90;82.30
1778;DHT22;886;50.082;8.222;2023-06-26T08:31:42;27.00;81.50
1778;DHT22;886;50.082;8.222;2023-06-26T08:34:10;27.10;81.30
1778;DHT22;886;50.082;8.222;2023-06-26T08:36:38;27.10;80.40
1778;DHT22;886;50.082;8.222;2023-06-26T08:39:05;27.00;79.30
1778;DHT22;886;50.082;8.222;2023-06-26T08:41:35;26.90;79.50
1778;DHT22;886;50.082;8.222;2023-06-26T08:44:03;26.90;80.00
1778;DHT22;886;50.082;8.222;2023-06-26T08:46:31;26.90;80.10
1778;DHT22;886;50.082;8.222;2023-06-26T08:49:04;27.00;80.30
1778;DHT22;886;50.082;8.222;2023-06-26T08:51:36;27.10;80.40
1778;DHT22;886;50.082;8.222;2023-06-26T08:54:09;27.10;80.60
1778;DHT22;886;50.082;8.222;2023-06-26T08:56:39;27.10;81.00
1778;DHT22;886;50.082;8.222;2023-06-26T08:59:08;27.10;80.80
1778;DHT22;886;50.082;8.222;2023-06-26T09:01:41;27.10;81.20
1778;DHT22;886;50.082;8.222;2023-06-26T09:04:08;27.10;81.70
1778;DHT22;886;50.082;8.222;2023-06-26T09:06:36;27.20;81.80
1778;DHT22;886;50.082;8.222;2023-06-26T09:09:04;27.20;81.90
1778;DHT22;886;50.082;8.222;2023-06-26T09:11:31;27.20;82.60
1778;DHT22;886;50.082;8.222;2023-06-26T09:13:59;27.20;80.90
1778;DHT22;886;50.082;8.222;2023-06-26T09:16:26;27.10;81.00
1778;DHT22;886;50.082;8.222;2023-06-26T09:18:55;27.00;81.10
1778;DHT22;886;50.082;8.222;2023-06-26T09:21:23;26.90;81.50
1778;DHT22;886;50.082;8.222;2023-06-26T09:23:52;26.80;81.80
1778;DHT22;886;50.082;8.222;2023-06-26T09:26:23;26.80;82.20
1778;DHT22;886;50.082;8.222;2023-06-26T09:28:51;26.90;81.10
1778;DHT22;886;50.082;8.222;2023-06-26T09:31:18;26.90;81.10
1778;DHT22;886;50.082;8.222;2023-06-26T09:34:05;26.90;80.90
1778;DHT22;886;50.082;8.222;2023-06-26T09:36:33;27.00;80.30
1778;DHT22;886;50.082;8.222;2023-06-26T09:39:07;27.20;80.70
1778;DHT22;886;50.082;8.222;2023-06-26T09:41:41;27.20;80.10
1778;DHT22;886;50.082;8.222;2023-06-26T09:44:10;27.30;80.00
1778;DHT22;886;50.082;8.222;2023-06-26T09:46:40;27.20;79.80
1778;DHT22;886;50.082;8.222;2023-06-26T09:49:08;27.20;79.80
1778;DHT22;886;50.082;8.222;2023-06-26T09:51:41;27.10;79.80
1778;DHT22;886;50.082;8.222;2023-06-26T09:54:09;27.10;79.50
1778;DHT22;886;50.082;8.222;2023-06-26T09:56:37;27.10;78.90
1778;DHT22;886;50.082;8.222;2023-06-26T09:59:06;27.20;79.80
1778;DHT22;886;50.082;8.222;2023-06-26T10:01:39;27.30;79.80
1778;DHT22;886;50.082;8.222;2023-06-26T10:04:07;27.30;79.40
1778;DHT22;886;50.082;8.222;2023-06-26T10:06:37;27.40;80.10
1778;DHT22;886;50.082;8.222;2023-06-26T10:09:06;27.30;79.90
1778;DHT22;886;50.082;8.222;2023-06-26T10:11:37;27.20;81.00
1778;DHT22;886;50.082;8.222;2023-06-26T10:14:09;27.20;80.60
1778;DHT22;886;50.082;8.222;2023-06-26T10:16:44;27.30;80.40
1778;DHT22;886;50.082;8.222;2023-06-26T10:19:13;27.30;81.40
1778;DHT22;886;50.082;8.222;2023-06-26T10:21:41;27.40;80.30
1778;DHT22;886;50.082;8.222;2023-06-26T10:24:10;27.40;80.60
1778;DHT22;886;50.082;8.222;2023-06-26T10:26:44;27.60;80.40
1778;DHT22;886;50.082;8.222;2023-06-26T10:29:15;27.70;80.30
1778;DHT22;886;50.082;8.222;2023-06-26T10:31:48;27.80;81.00
1778;DHT22;886;50.082;8.222;2023-06-26T10:34:17;27.80;81.10
1778;DHT22;886;50.082;8.222;2023-06-26T10:36:44;27.80;81.50
1778;DHT22;886;50.082;8.222;2023-06-26T10:39:46;27.60;80.90
1778;DHT22;886;50.082;8.222;2023-06-26T10:42:17;27.70;81.40
1778;DHT22;886;50.082;8.222;2023-06-26T10:44:47;27.80;81.20
1778;DHT22;886;50.082;8.222;2023-06-26T10:47:29;27.70;80.80
1778;DHT22;886;50.082;8.222;2023-06-26T10:50:16;27.70;80.70
1778;DHT22;886;50.082;8.222;2023-06-26T10:53:08;27.60;80.80
1778;DHT22;886;50.082;8.222;2023-06-26T10:55:36;27.50;81.60
1778;DHT22;886;50.082;8.222;2023-06-26T10:58:03;27.50;81.30
1778;DHT22;886;50.082;8.222;2023-06-26T11:00:32;27.60;81.90
1778;DHT22;886;50.082;8.222;2023-06-26T11:02:59;27.70;81.70
1778;DHT22;886;50.082;8.222;2023-06-26T11:05:29;27.70;81.00
1778;DHT22;886;50.082;8.222;2023-06-26T11:08:06;27.70;81.30
1778;DHT22;886;50.082;8.222;2023-06-26T11:10:48;27.60;80.60
1778;DHT22;886;50.082;8.222;2023-06-26T11:13:17;27.60;81.00
1778;DHT22;886;50.082;8.222;2023-06-26T11:15:49;27.70;80.60
1778;DHT22;886;50.082;8.222;2023-06-26T11:18:17;27.70;80.10
1778;DHT22;886;50.082;8.222;2023-06-26T11:20:44;27.80;80.20
1778;DHT22;886;50.082;8.222;2023-06-26T11:23:12;27.90;81.00
1778;DHT22;886;50.082;8.222;2023-06-26T11:25:39;27.80;81.00
1778;DHT22;886;50.082;8.222;2023-06-26T11:28:09;27.80;80.40
1778;DHT22;886;50.082;8.222;2023-06-26T11:30:37;27.70;80.90
1778;DHT22;886;50.082;8.222;2023-06-26T11:33:10;27.90;80.90
1778;DHT22;886;50.082;8.222;2023-06-26T11:35:37;27.90;80.90
1778;DHT22;886;50.082;8.222;2023-06-26T11:38:05;27.90;80.70
1778;DHT22;886;50.082;8.222;2023-06-26T11:40:34;27.80;80.20
1778;DHT22;886;50.082;8.222;2023-06-26T11:43:06;27.80;80.30
1778;DHT22;886;50.082;8.222;2023-06-26T11:45:33;27.80;79.30
1778;DHT22;886;50.082;8.222;2023-06-26T11:48:00;27.80;80.80
1778;DHT22;886;50.082;8.222;2023-06-26T11:50:29;27.70;80.80
1778;DHT22;886;50.082;8.222;2023-06-26T11:52:57;27.70;81.00
1778;DHT22;886;50.082;8.222;2023-06-26T11:55:26;27.70;80.90
1778;DHT22;886;50.082;8.222;2023-06-26T11:57:54;27.60;81.00
1778;DHT22;886;50.082;8.222;2023-06-26T12:00:23;27.60;81.30
1778;DHT22;886;50.082;8.222;2023-06-26T12:02:50;27.50;81.70
1778;DHT22;886;50.082;8.222;2023-06-26T12:05:19;27.60;81.70
1778;DHT22;886;50.082;8.222;2023-06-26T12:07:48;27.70;82.50
1778;DHT22;886;50.082;8.222;2023-06-26T12:10:17;27.60;82.20
1778;DHT22;886;50.082;8.222;2023-06-26T12:12:45;27.60;82.60
1778;DHT22;886;50.082;8.222;2023-06-26T12:15:14;27.60;82.50
1778;DHT22;886;50.082;8.222;2023-06-26T12:17:42;27.60;82.80
1778;DHT22;886;50.082;8.222;2023-06-26T12:20:20;27.50;82.60
1778;DHT22;886;50.082;8.222;2023-06-26T12:22:49;27.50;82.80
1778;DHT22;886;50.082;8.222;2023-06-26T12:25:22;27.50;83.20
1778;DHT22;886;50.082;8.222;2023-06-26T12:27:49;27.50;83.80
1778;DHT22;886;50.082;8.222;2023-06-26T12:30:17;27.60;83.70
1778;DHT22;886;50.082;8.222;2023-06-26T12:32:45;27.40;83.60
1778;DHT22;886;50.082;8.222;2023-06-26T12:35:13;27.40;83.20
1778;DHT22;886;50.082;8.222;2023-06-26T12:37:43;27.40;82.90
1778;DHT22;886;50.082;8.222;2023-06-26T12:40:19;27.50;83.10
1778;DHT22;886;50.082;8.222;2023-06-26T12:42:49;27.40;82.30
1778;DHT22;886;50.082;8.222;2023-06-26T12:45:16;27.50;83.20
1778;DHT22;886;50.082;8.222;2023-06-26T12:47:46;27.40;83.10
1778;DHT22;886;50.082;8.222;2023-06-26T12:50:15;27.40;83.60
1778;DHT22;886;50.082;8.222;2023-06-26T12:52:43;27.40;83.40
1778;DHT22;886;50.082;8.222;2023-06-26T12:55:10;27.40;82.30
1778;DHT22;886;50.082;8.222;2023-06-26T12:57:39;27.30;81.60
1778;DHT22;886;50.082;8.222;2023-06-26T13:00:07;27.40;82.00
1778;DHT22;886;50.082;8.222;2023-06-26T13:02:36;27.30;81.90
1778;DHT22;886;50.082;8.222;2023-06-26T13:05:04;27.30;81.90
1778;DHT22;886;50.082;8.222;2023-06-26T13:07:31;27.40;81.60
1778;DHT22;886;50.082;8.222;2023-06-26T13:09:59;27.50;80.30
1778;DHT22;886;50.082;8.222;2023-06-26T13:12:26;27.60;79.20
1778;DHT22;886;50.082;8.222;2023-06-26T13:14:54;27.60;80.50
1778;DHT22;886;50.082;8.222;2023-06-26T13:17:21;27.60;79.60
1778;DHT22;886;50.082;8.222;2023-06-26T13:19:48;27.40;79.60
1778;DHT22;886;50.082;8.222;2023-06-26T13:22:15;27.50;79.10
1778;DHT22;886;50.082;8.222;2023-06-26T13:24:43;27.50;78.20
1778;DHT22;886;50.082;8.222;2023-06-26T13:27:10;27.50;79.30
1778;DHT22;886;50.082;8.222;2023-06-26T13:29:37;27.50;80.00
1778;DHT22;886;50.082;8.222;2023-06-26T13:32:06;27.40;79.50
1778;DHT22;886;50.082;8.222;2023-06-26T13:34:34;27.30;79.70
1778;DHT22;886;50.082;8.222;2023-06-26T13:37:01;27.30;79.70
1778;DHT22;886;50.082;8.222;2023-06-26T13:39:28;27.30;79.30
1778;DHT22;886;50.082;8.222;2023-06-26T13:41:55;27.20;79.10
1778;DHT22;886;50.082;8.222;2023-06-26T13:44:22;27.20;78.80
1778;DHT22;886;50.082;8.222;2023-06-26T13:47:01;27.20;79.80
1778;DHT22;886;50.082;8.222;2023-06-26T13:49:30;27.20;78.70
1778;DHT22;886;50.082;8.222;2023-06-26T13:51:57;27.30;78.80
1778;DHT22;886;50.082;8.222;2023-06-26T13:54:24;27.30;78.60
1778;DHT22;886;50.082;8.222;2023-06-26T13:56:51;27.30;78.10
1778;DHT22;886;50.082;8.222;2023-06-26T13:59:18;27.30;78.70
1778;DHT22;886;50.082;8.222;2023-06-26T14:01:48;27.30;78.00
1778;DHT22;886;50.082;8.222;2023-06-26T14:04:16;27.40;76.90
1778;DHT22;886;50.082;8.222;2023-06-26T14:06:44;27.40;77.00
1778;DHT22;886;50.082;8.222;2023-06-26T14:09:12;27.30;76.50
1778;DHT22;886;50.082;8.222;2023-06-26T14:11:39;27.20;76.60
1778;DHT22;886;50.082;8.222;2023-06-26T14:14:06;27.40;76.90
1778;DHT22;886;50.082;8.222;2023-06-26T14:16:33;27.40;76.40
1778;DHT22;886;50.082;8.222;2023-06-26T14:19:00;27.30;75.20
1778;DHT22;886;50.082;8.222;2023-06-26T14:21:28;27.10;74.50
1778;DHT22;886;50.082;8.222;2023-06-26T14:23:57;27.10;74.40
1778;DHT22;886;50.082;8.222;2023-06-26T14:26:24;27.00;74.10
1778;DHT22;886;50.082;8.222;2023-06-26T14:28:51;26.90;73.60
1778;DHT22;886;50.082;8.222;2023-06-26T14:31:18;26.90;74.00
1778;DHT22;886;50.082;8.222;2023-06-26T14:33:45;26.90;73.90
1778;DHT22;886;50.082;8.222;2023-06-26T14:36:12;26.90;74.00
1778;DHT22;886;50.082;8.222;2023-06-26T14:38:39;26.90;73.70
1778;DHT22;886;50.082;8.222;2023-06-26T14:41:08;27.00;74.40
1778;DHT22;886;50.082;8.222;2023-06-26T14:43:36;26.90;73.40
1778;DHT22;886;50.082;8.222;2023-06-26T14:46:03;26.80;73.20
1778;DHT22;886;50.082;8.222;2023-06-26T14:48:31;26.80;72.90
1778;DHT22;886;50.082;8.222;2023-06-26T14:50:58;26.80;73.10
1778;DHT22;886;50.082;8.222;2023-06-26T14:53:26;26.90;73.70
1778;DHT22;886;50.082;8.222;2023-06-26T14:55:53;26.90;73.50
1778;DHT22;886;50.082;8.222;2023-06-26T14:58:22;26.70;72.90
1778;DHT22;886;50.082;8.222;2023-06-26T15:00:49;26.60;72.20
1778;DHT22;886;50.082;8.222;2023-06-26T15:03:16;26.60;72.00
1778;DHT22;886;50.082;8.222;2023-06-26T15:05:44;26.50;71.80
1778;DHT22;886;50.082;8.222;2023-06-26T15:08:11;26.50;72.10
1778;DHT22;886;50.082;8.222;2023-06-26T15:10:38;26.30;71.30
1778;DHT22;886;50.082;8.222;2023-06-26T15:13:05;26.30;71.60
1778;DHT22;886;50.082;8.222;2023-06-26T15:15:35;26.30;72.10
1778;DHT22;886;50.082;8.222;2023-06-26T15:18:03;26.40;71.80
1778;DHT22;886;50.082;8.222;2023-06-26T15:20:31;26.40;72.20
1778;DHT22;886;50.082;8.222;2023-06-26T15:22:58;26.50;72.60
1778;DHT22;886;50.082;8.222;2023-06-26T15:25:26;26.50;72.20
1778;DHT22;886;50.082;8.222;2023-06-26T15:27:54;26.30;70.90
1778;DHT22;886;50.082;8.222;2023-06-26T15:30:22;26.30;71.80
1778;DHT22;886;50.082;8.222;2023-06-26T15:32:50;26.30;72.30
1778;DHT22;886;50.082;8.222;2023-06-26T15:35:17;26.10;71.50
1778;DHT22;886;50.082;8.222;2023-06-26T15:37:44;26.20;71.80
